Time;durP1;ratioP1;P1;durP2;ratioP2;P2;SDS_P1;SDS_P2;PMS_P1;PMS_P2;Temp;Humidity;BMP_temperature;BMP_pressure;BME280_temperature;BME280_humidity;BME280_pressure;Samples;Min_cycle;Max_cycle;Signal;HPM_P1;HPM_P2
2023/03/21 00:02:09;;;;;;;24.13;15.10;;;;;;;;;;4972854;28;20218;-65
2023/03/21 00:04:34;;;;;;;27.58;15.35;;;;;;;;;;4973787;28;20220;-65
2023/03/21 00:07:00;;;;;;;25.27;15.70;;;;;;;;;;4973242;28;20346;-65
2023/03/21 00:09:25;;;;;;;26.45;15.43;;;;;;;;;;4973578;28;20289;-65
2023/03/21 00:11:51;;;;;;;26.88;15.75;;;;;;;;;;4955202;28;20203;-65
2023/03/21 00:14:17;;;;;;;27.83;16.17;;;;;;;;;;4953094;28;20222;-65
2023/03/21 00:16:44;;;;;;;27.92;16.75;;;;;;;;;;4954460;28;20488;-65
2023/03/21 00:19:10;;;;;;;25.50;16.58;;;;;;;;;;4954017;28;20249;-65
2023/03/21 00:21:37;;;;;;;30.38;16.90;;;;;;;;;;4936391;29;20214;-65
2023/03/21 00:24:02;;;;;;;30.70;18.27;;;;;;;;;;4953566;28;20264;-65
2023/03/21 00:26:27;;;;;;;26.02;17.20;;;;;;;;;;4936284;29;20726;-65
2023/03/21 00:28:53;;;;;;;33.00;18.42;;;;;;;;;;4953257;29;20717;-66
2023/03/21 00:31:18;;;;;;;27.17;18.63;;;;;;;;;;4969887;28;20715;-65
2023/03/21 00:33:43;;;;;;;27.48;17.75;;;;;;;;;;4973295;28;20225;-65
2023/03/21 00:36:09;;;;;;;28.42;19.35;;;;;;;;;;4971966;28;20396;-65
2023/03/21 00:38:35;;;;;;;28.88;19.40;;;;;;;;;;4952826;29;20345;-65
2023/03/21 00:41:02;;;;;;;29.90;19.63;;;;;;;;;;4936703;29;20436;-65
2023/03/21 00:43:29;;;;;;;29.30;19.33;;;;;;;;;;4952920;29;20217;-65
2023/03/21 00:45:54;;;;;;;29.83;19.75;;;;;;;;;;4953507;29;20262;-65
2023/03/21 00:48:19;;;;;;;29.27;18.75;;;;;;;;;;4953361;29;20219;-65
2023/03/21 00:50:45;;;;;;;27.00;17.92;;;;;;;;;;4953150;29;20211;-66
2023/03/21 00:53:11;;;;;;;30.48;18.65;;;;;;;;;;4953323;29;20247;-65
2023/03/21 00:55:37;;;;;;;28.17;18.58;;;;;;;;;;4953551;29;20678;-65
2023/03/21 00:58:02;;;;;;;26.52;18.02;;;;;;;;;;4952270;29;20461;-65
2023/03/21 01:00:28;;;;;;;28.67;18.15;;;;;;;;;;4953332;29;20753;-65
2023/03/21 01:03:04;;;;;;;27.40;18.00;;;;;;;;;;4936281;29;20214;-65
2023/03/21 01:08:14;;;;;;;25.55;17.55;;;;;;;;;;4953104;29;20253;-66
2023/03/21 01:10:40;;;;;;;26.05;17.33;;;;;;;;;;4932224;28;20894;-66
2023/03/21 01:13:05;;;;;;;21.92;16.73;;;;;;;;;;4924979;28;20948;-65
2023/03/21 01:15:31;;;;;;;26.10;16.85;;;;;;;;;;4944151;28;20617;-65
2023/03/21 01:17:56;;;;;;;26.35;16.48;;;;;;;;;;4943034;28;20269;-65
2023/03/21 01:20:21;;;;;;;22.45;16.02;;;;;;;;;;4943421;28;20301;-65
2023/03/21 01:22:47;;;;;;;25.38;16.10;;;;;;;;;;4943531;28;20227;-65
2023/03/21 01:25:12;;;;;;;23.83;15.80;;;;;;;;;;4942473;28;20618;-64
2023/03/21 01:27:37;;;;;;;22.13;16.67;;;;;;;;;;4943164;28;20210;-64
2023/03/21 01:30:03;;;;;;;23.25;16.70;;;;;;;;;;4937661;28;20745;-64
2023/03/21 01:32:28;;;;;;;20.15;15.82;;;;;;;;;;4917252;28;20234;-64
2023/03/21 01:34:54;;;;;;;21.35;15.65;;;;;;;;;;4935947;28;20237;-64
2023/03/21 01:37:19;;;;;;;22.98;16.48;;;;;;;;;;4940501;28;20333;-64
2023/03/21 01:39:44;;;;;;;21.50;14.25;;;;;;;;;;4942815;28;20225;-63
2023/03/21 01:42:11;;;;;;;21.90;13.25;;;;;;;;;;4942485;28;20245;-64
2023/03/21 01:44:50;;;;;;;21.35;13.60;;;;;;;;;;4934713;28;20221;-64
2023/03/21 01:47:16;;;;;;;19.90;13.45;;;;;;;;;;4960225;28;20225;-64
2023/03/21 01:49:44;;;;;;;19.55;12.80;;;;;;;;;;4962375;28;20579;-64
2023/03/21 01:52:11;;;;;;;21.63;13.20;;;;;;;;;;4940440;28;20325;-64
2023/03/21 01:54:37;;;;;;;20.75;14.27;;;;;;;;;;4953638;28;20214;-64
2023/03/21 01:57:03;;;;;;;20.65;14.20;;;;;;;;;;4936482;28;20229;-64
2023/03/21 01:59:30;;;;;;;23.67;14.15;;;;;;;;;;4939931;28;20210;-64
2023/03/21 02:01:56;;;;;;;23.55;14.35;;;;;;;;;;4961409;28;20318;-64
2023/03/21 02:04:26;;;;;;;23.92;15.02;;;;;;;;;;4943930;28;20301;-64
2023/03/21 02:07:08;;;;;;;21.58;14.60;;;;;;;;;;4943211;28;20205;-64
2023/03/21 02:09:34;;;;;;;20.98;14.95;;;;;;;;;;4943854;28;20214;-64
2023/03/21 02:12:00;;;;;;;26.08;16.33;;;;;;;;;;4928028;28;20677;-64
2023/03/21 02:14:25;;;;;;;24.67;15.68;;;;;;;;;;4957589;28;20324;-64
2023/03/21 02:17:05;;;;;;;23.65;15.75;;;;;;;;;;4954212;28;20288;-64
2023/03/21 02:19:31;;;;;;;14.77;13.15;;;;;;;;;;4938532;28;20709;-64
2023/03/21 02:21:59;;;;;;;19.85;14.98;;;;;;;;;;4937439;28;20222;-64
2023/03/21 02:24:25;;;;;;;22.08;14.82;;;;;;;;;;4961367;28;20214;-64
2023/03/21 02:26:58;;;;;;;21.23;14.60;;;;;;;;;;4953542;28;20221;-64
2023/03/21 02:29:23;;;;;;;21.58;14.65;;;;;;;;;;4941600;28;21353;-64
2023/03/21 02:31:59;;;;;;;25.15;15.88;;;;;;;;;;4942057;28;20238;-64
2023/03/21 02:34:43;;;;;;;23.38;15.50;;;;;;;;;;4943645;28;20225;-64
2023/03/21 02:37:12;;;;;;;21.48;14.85;;;;;;;;;;4958072;28;20320;-64
2023/03/21 02:39:49;;;;;;;21.90;16.42;;;;;;;;;;4942834;28;20313;-64
2023/03/21 02:42:38;;;;;;;23.95;16.55;;;;;;;;;;4935427;28;21251;-64
2023/03/21 02:45:08;;;;;;;24.92;17.20;;;;;;;;;;4957865;28;20210;-64
2023/03/21 02:47:33;;;;;;;22.75;16.23;;;;;;;;;;4944230;28;20225;-64
2023/03/21 02:50:08;;;;;;;26.85;18.02;;;;;;;;;;4946922;28;20288;-64
2023/03/21 02:52:34;;;;;;;23.83;17.52;;;;;;;;;;4947786;28;20639;-64
2023/03/21 02:54:59;;;;;;;26.67;17.95;;;;;;;;;;4947832;28;20308;-64
2023/03/21 02:57:25;;;;;;;24.92;17.48;;;;;;;;;;4946547;28;20213;-64
2023/03/21 02:59:50;;;;;;;23.48;17.38;;;;;;;;;;4944587;28;20237;-64
2023/03/21 03:02:16;;;;;;;23.80;17.00;;;;;;;;;;4939731;28;20221;-64
2023/03/21 03:04:41;;;;;;;22.73;16.77;;;;;;;;;;4939544;28;20245;-64
2023/03/21 03:07:07;;;;;;;25.58;17.48;;;;;;;;;;4959918;28;20697;-64
2023/03/21 03:09:48;;;;;;;22.80;17.08;;;;;;;;;;4965071;28;20218;-64
2023/03/21 03:12:23;;;;;;;24.60;17.77;;;;;;;;;;4928598;28;20226;-64
2023/03/21 03:14:52;;;;;;;25.65;18.60;;;;;;;;;;4947612;28;20217;-64
2023/03/21 03:17:17;;;;;;;22.23;16.92;;;;;;;;;;4946071;28;20213;-64
2023/03/21 03:19:45;;;;;;;24.48;17.35;;;;;;;;;;4948037;28;20683;-64
2023/03/21 03:22:18;;;;;;;22.75;16.23;;;;;;;;;;4944583;28;20224;-64
2023/03/21 03:24:43;;;;;;;23.02;17.52;;;;;;;;;;4956751;28;20813;-64
2023/03/21 03:27:09;;;;;;;22.58;16.27;;;;;;;;;;4945970;28;20511;-64
2023/03/21 03:29:36;;;;;;;21.35;16.80;;;;;;;;;;4923157;28;20217;-64
2023/03/21 03:32:06;;;;;;;22.45;15.88;;;;;;;;;;4945642;28;20601;-64
2023/03/21 03:34:33;;;;;;;24.10;17.05;;;;;;;;;;4947076;28;20264;-64
2023/03/21 03:37:01;;;;;;;25.67;16.70;;;;;;;;;;4947364;28;20210;-64
2023/03/21 03:39:30;;;;;;;21.83;14.93;;;;;;;;;;4953121;28;20678;-64
2023/03/21 03:41:58;;;;;;;20.23;14.63;;;;;;;;;;4947040;28;20261;-64
2023/03/21 03:44:24;;;;;;;20.33;14.70;;;;;;;;;;4962903;28;20712;-64
2023/03/21 03:46:51;;;;;;;23.00;15.25;;;;;;;;;;4939122;28;20253;-64
2023/03/21 03:49:19;;;;;;;22.48;15.77;;;;;;;;;;4938812;28;20217;-64
2023/03/21 03:51:53;;;;;;;21.95;14.85;;;;;;;;;;4940424;28;20690;-64
2023/03/21 03:54:20;;;;;;;27.35;17.13;;;;;;;;;;4945590;28;20241;-64
2023/03/21 03:56:45;;;;;;;25.88;16.33;;;;;;;;;;4946774;28;20210;-64
2023/03/21 03:59:11;;;;;;;28.88;16.65;;;;;;;;;;4962739;28;20218;-64
2023/03/21 04:01:36;;;;;;;22.73;14.90;;;;;;;;;;4946372;28;20229;-64
2023/03/21 04:04:01;;;;;;;24.23;14.68;;;;;;;;;;4963604;28;20222;-64
2023/03/21 04:06:27;;;;;;;24.77;14.75;;;;;;;;;;4963292;28;20280;-64
2023/03/21 04:08:53;;;;;;;20.23;14.23;;;;;;;;;;4957407;28;20300;-64
2023/03/21 04:11:19;;;;;;;23.35;13.25;;;;;;;;;;4941235;28;20326;-64
2023/03/21 04:13:44;;;;;;;20.13;13.02;;;;;;;;;;4936417;28;20692;-64
2023/03/21 04:16:10;;;;;;;19.95;12.95;;;;;;;;;;4926091;28;20831;-64
2023/03/21 04:18:37;;;;;;;25.02;13.50;;;;;;;;;;4944464;28;20676;-64
2023/03/21 04:21:06;;;;;;;21.85;12.10;;;;;;;;;;4943633;28;20257;-64
2023/03/21 04:23:32;;;;;;;20.52;12.10;;;;;;;;;;4963766;28;20277;-64
2023/03/21 04:25:57;;;;;;;21.92;12.20;;;;;;;;;;4962077;28;20210;-64
2023/03/21 04:28:22;;;;;;;19.75;11.25;;;;;;;;;;4943580;28;20240;-64
2023/03/21 04:30:49;;;;;;;18.50;11.52;;;;;;;;;;4940080;28;20238;-64
2023/03/21 04:33:14;;;;;;;18.13;11.48;;;;;;;;;;4937825;28;20847;-64
2023/03/21 04:35:41;;;;;;;23.45;12.05;;;;;;;;;;4920450;28;20301;-64
2023/03/21 04:38:06;;;;;;;21.02;11.80;;;;;;;;;;4942646;28;20260;-64
2023/03/21 04:40:31;;;;;;;21.15;11.75;;;;;;;;;;4946534;28;20648;-64
2023/03/21 04:43:00;;;;;;;19.77;10.88;;;;;;;;;;4945197;28;20207;-64
2023/03/21 04:45:25;;;;;;;24.08;11.02;;;;;;;;;;4928697;28;20674;-64
2023/03/21 04:47:50;;;;;;;17.90;10.45;;;;;;;;;;4929000;28;20221;-64
2023/03/21 04:50:16;;;;;;;18.90;10.98;;;;;;;;;;4963293;28;20245;-64
2023/03/21 04:52:41;;;;;;;17.55;11.23;;;;;;;;;;4962256;28;20570;-64
2023/03/21 04:55:08;;;;;;;17.08;10.35;;;;;;;;;;4956494;28;20213;-64
2023/03/21 04:57:34;;;;;;;16.85;10.52;;;;;;;;;;4956481;28;20670;-64
2023/03/21 05:00:00;;;;;;;15.50;8.77;;;;;;;;;;4959566;28;20241;-64
2023/03/21 05:02:25;;;;;;;12.73;6.95;;;;;;;;;;4963532;28;20575;-64
2023/03/21 05:04:50;;;;;;;11.40;7.95;;;;;;;;;;4964671;28;20585;-64
2023/03/21 05:07:16;;;;;;;13.80;8.48;;;;;;;;;;4964063;28;20218;-64
2023/03/21 05:09:41;;;;;;;3.88;2.70;;;;;;;;;;4946002;28;20218;-64
2023/03/21 05:12:06;;;;;;;8.38;5.55;;;;;;;;;;4943274;28;20301;-64
2023/03/21 05:14:32;;;;;;;21.55;11.35;;;;;;;;;;4944100;28;20226;-64
2023/03/21 05:16:58;;;;;;;20.30;10.80;;;;;;;;;;4935900;28;20334;-64
2023/03/21 05:19:33;;;;;;;21.20;10.57;;;;;;;;;;4923020;28;20301;-64
2023/03/21 05:22:03;;;;;;;17.05;10.65;;;;;;;;;;4939029;28;20421;-64
2023/03/21 05:24:28;;;;;;;12.52;8.65;;;;;;;;;;4961524;28;20240;-64
2023/03/21 05:26:54;;;;;;;17.13;10.50;;;;;;;;;;4953996;28;20679;-64
2023/03/21 05:29:20;;;;;;;13.23;7.07;;;;;;;;;;4943546;28;20336;-64
2023/03/21 05:31:45;;;;;;;11.52;7.30;;;;;;;;;;4942416;28;20643;-64
2023/03/21 05:34:11;;;;;;;21.17;10.07;;;;;;;;;;4942863;28;20242;-65
2023/03/21 05:36:36;;;;;;;18.55;10.85;;;;;;;;;;4926024;28;20329;-65
2023/03/21 05:39:02;;;;;;;19.05;10.27;;;;;;;;;;4937299;28;20636;-65
2023/03/21 05:41:27;;;;;;;25.02;11.30;;;;;;;;;;4935402;28;20218;-65
2023/03/21 05:43:53;;;;;;;20.40;10.93;;;;;;;;;;4936047;28;20673;-64
2023/03/21 05:46:18;;;;;;;19.55;10.50;;;;;;;;;;4940093;28;20218;-64
2023/03/21 05:48:43;;;;;;;19.63;10.90;;;;;;;;;;4943393;28;20765;-64
2023/03/21 05:51:08;;;;;;;15.80;9.75;;;;;;;;;;4942547;28;20229;-64
2023/03/21 05:53:34;;;;;;;15.32;7.68;;;;;;;;;;4942587;28;20797;-65
2023/03/21 05:55:59;;;;;;;16.15;9.77;;;;;;;;;;4942974;28;20222;-66
2023/03/21 05:58:24;;;;;;;23.33;20.10;;;;;;;;;;4942847;28;20237;-65
2023/03/21 06:00:50;;;;;;;18.67;10.75;;;;;;;;;;4940906;28;20218;-65
2023/03/21 06:03:15;;;;;;;20.17;10.90;;;;;;;;;;4919060;28;20214;-65
2023/03/21 06:05:40;;;;;;;21.38;11.10;;;;;;;;;;4936107;28;20218;-65
2023/03/21 06:08:06;;;;;;;17.02;10.23;;;;;;;;;;4943349;28;20215;-65
2023/03/21 06:10:31;;;;;;;19.85;10.98;;;;;;;;;;4959661;28;20210;-64
2023/03/21 06:12:56;;;;;;;20.23;11.03;;;;;;;;;;4972544;28;20446;-64
2023/03/21 06:15:22;;;;;;;21.05;10.43;;;;;;;;;;4967508;28;20214;-65
2023/03/21 06:17:47;;;;;;;19.05;10.85;;;;;;;;;;4965106;28;20249;-65
2023/03/21 06:20:12;;;;;;;17.85;10.65;;;;;;;;;;4961649;28;20216;-64
2023/03/21 06:22:38;;;;;;;23.45;10.43;;;;;;;;;;4942011;28;20297;-63
2023/03/21 06:25:03;;;;;;;18.98;9.98;;;;;;;;;;4956855;28;20206;-63
2023/03/21 06:27:29;;;;;;;16.15;9.00;;;;;;;;;;4943289;28;20666;-63
2023/03/21 06:29:54;;;;;;;21.75;10.45;;;;;;;;;;4962616;28;20210;-63
2023/03/21 06:32:19;;;;;;;18.45;10.00;;;;;;;;;;4964245;28;20614;-63
2023/03/21 06:34:45;;;;;;;14.95;9.23;;;;;;;;;;4952979;28;20268;-64
2023/03/21 06:37:10;;;;;;;17.48;9.50;;;;;;;;;;4962412;28;20210;-64
2023/03/21 06:39:35;;;;;;;19.30;9.82;;;;;;;;;;4963835;28;20740;-64
2023/03/21 06:42:01;;;;;;;24.67;14.65;;;;;;;;;;4962872;28;20264;-63
2023/03/21 06:44:26;;;;;;;23.17;13.15;;;;;;;;;;4946236;28;20210;-64
2023/03/21 06:46:51;;;;;;;22.27;14.40;;;;;;;;;;4962948;28;20257;-63
2023/03/21 06:49:17;;;;;;;17.50;9.70;;;;;;;;;;4962975;28;20202;-63
2023/03/21 06:51:42;;;;;;;18.58;9.95;;;;;;;;;;4963950;28;20305;-64
2023/03/21 06:54:07;;;;;;;16.85;8.82;;;;;;;;;;4961356;28;20249;-64
2023/03/21 06:56:33;;;;;;;22.92;11.48;;;;;;;;;;4963123;28;20248;-63
2023/03/21 06:58:58;;;;;;;20.58;10.32;;;;;;;;;;4946132;28;20294;-63
2023/03/21 07:01:26;;;;;;;18.17;8.82;;;;;;;;;;4961855;28;20569;-64
2023/03/21 07:03:52;;;;;;;16.73;8.45;;;;;;;;;;4961574;28;20202;-63
2023/03/21 07:06:17;;;;;;;17.30;10.20;;;;;;;;;;4962543;28;20658;-63
2023/03/21 07:08:43;;;;;;;18.33;9.47;;;;;;;;;;4958281;28;20441;-65
2023/03/21 07:11:08;;;;;;;19.52;9.82;;;;;;;;;;4956531;28;20214;-64
2023/03/21 07:13:33;;;;;;;19.83;9.50;;;;;;;;;;4962164;28;20226;-64
2023/03/21 07:15:59;;;;;;;17.83;9.02;;;;;;;;;;4953122;28;20210;-64
2023/03/21 07:18:24;;;;;;;17.67;9.32;;;;;;;;;;4954586;28;20211;-64
2023/03/21 07:20:49;;;;;;;20.23;9.02;;;;;;;;;;4940256;28;20230;-64
2023/03/21 07:23:15;;;;;;;19.75;9.48;;;;;;;;;;4971359;28;20513;-64
2023/03/21 07:25:41;;;;;;;16.90;8.50;;;;;;;;;;4972993;28;20212;-65
2023/03/21 07:28:07;;;;;;;16.63;8.63;;;;;;;;;;4953837;28;20305;-64
2023/03/21 07:30:33;;;;;;;19.95;9.63;;;;;;;;;;4952750;29;20254;-64
2023/03/21 07:32:58;;;;;;;17.85;8.90;;;;;;;;;;4952534;29;20250;-64
2023/03/21 07:35:24;;;;;;;16.50;8.02;;;;;;;;;;4955821;28;20202;-64
2023/03/21 07:37:49;;;;;;;15.68;8.25;;;;;;;;;;4956281;29;20242;-64
2023/03/21 07:40:15;;;;;;;16.55;8.68;;;;;;;;;;4956367;28;20211;-64
2023/03/21 07:42:40;;;;;;;18.67;8.40;;;;;;;;;;4955979;29;20203;-64
2023/03/21 07:45:06;;;;;;;17.20;8.68;;;;;;;;;;4956260;28;20222;-64
2023/03/21 07:47:32;;;;;;;16.75;8.00;;;;;;;;;;4956040;29;20301;-64
2023/03/21 07:49:57;;;;;;;15.50;8.50;;;;;;;;;;4957046;28;20294;-64
2023/03/21 07:52:22;;;;;;;17.25;8.52;;;;;;;;;;4955737;28;20581;-64
2023/03/21 07:54:48;;;;;;;14.93;8.20;;;;;;;;;;4956591;28;20218;-64
2023/03/21 07:57:13;;;;;;;17.40;8.95;;;;;;;;;;4956634;28;20237;-64
2023/03/21 07:59:38;;;;;;;18.23;8.88;;;;;;;;;;4956279;28;20585;-64
2023/03/21 08:02:03;;;;;;;18.85;8.68;;;;;;;;;;4956533;28;20225;-64
2023/03/21 08:04:29;;;;;;;17.08;8.63;;;;;;;;;;4956847;28;20583;-64
2023/03/21 08:06:54;;;;;;;17.20;8.98;;;;;;;;;;4956215;28;20289;-65
2023/03/21 08:09:19;;;;;;;18.15;8.23;;;;;;;;;;4955888;28;20308;-65
2023/03/21 08:11:45;;;;;;;16.80;8.38;;;;;;;;;;4956659;28;20221;-65
2023/03/21 08:14:10;;;;;;;16.08;8.75;;;;;;;;;;4955369;28;20234;-65
2023/03/21 08:16:35;;;;;;;21.45;8.93;;;;;;;;;;4956814;28;20207;-65
2023/03/21 08:19:01;;;;;;;15.90;7.95;;;;;;;;;;4956292;28;20218;-65
2023/03/21 08:21:26;;;;;;;15.23;7.07;;;;;;;;;;4959431;28;20286;-65
2023/03/21 08:23:51;;;;;;;14.77;7.07;;;;;;;;;;4955989;29;20202;-65
2023/03/21 08:26:18;;;;;;;16.92;8.82;;;;;;;;;;4963148;28;20246;-65
2023/03/21 08:28:43;;;;;;;15.95;7.72;;;;;;;;;;4969666;28;20233;-65
2023/03/21 08:31:09;;;;;;;12.82;7.03;;;;;;;;;;4959569;28;20234;-65
2023/03/21 08:33:35;;;;;;;19.05;7.63;;;;;;;;;;4938303;29;20286;-65
2023/03/21 08:36:00;;;;;;;15.07;7.28;;;;;;;;;;4956227;29;20222;-65
2023/03/21 08:38:28;;;;;;;15.18;7.28;;;;;;;;;;4957953;28;20202;-65
2023/03/21 08:40:54;;;;;;;14.95;7.63;;;;;;;;;;4974440;28;20248;-65
2023/03/21 08:43:19;;;;;;;14.20;6.95;;;;;;;;;;4975027;28;20633;-65
2023/03/21 08:45:44;;;;;;;12.80;7.15;;;;;;;;;;4974423;28;20689;-65
2023/03/21 08:48:10;;;;;;;16.92;7.18;;;;;;;;;;4974168;28;20305;-65
2023/03/21 08:50:35;;;;;;;13.98;7.00;;;;;;;;;;4975158;28;20220;-65
2023/03/21 08:53:00;;;;;;;13.32;7.03;;;;;;;;;;4974305;28;20272;-65
2023/03/21 08:55:26;;;;;;;15.20;7.03;;;;;;;;;;4974175;28;20238;-65
2023/03/21 08:57:51;;;;;;;12.90;6.57;;;;;;;;;;4975032;28;20233;-65
2023/03/21 09:00:17;;;;;;;16.60;7.55;;;;;;;;;;4974640;28;20214;-65
2023/03/21 09:02:45;;;;;;;15.00;7.00;;;;;;;;;;4974279;28;20280;-64
2023/03/21 09:05:11;;;;;;;15.27;6.85;;;;;;;;;;4974447;28;20222;-64
2023/03/21 09:07:37;;;;;;;16.00;6.60;;;;;;;;;;4974646;28;20344;-64
2023/03/21 09:10:03;;;;;;;14.30;7.03;;;;;;;;;;4973355;28;20288;-64
2023/03/21 09:12:28;;;;;;;13.13;6.30;;;;;;;;;;4957586;28;20253;-64
2023/03/21 09:14:53;;;;;;;17.17;6.10;;;;;;;;;;4974789;28;20276;-64
2023/03/21 09:17:19;;;;;;;12.48;6.20;;;;;;;;;;4973508;28;20206;-64
2023/03/21 09:19:46;;;;;;;12.68;6.18;;;;;;;;;;4955107;28;20214;-64
2023/03/21 09:22:16;;;;;;;14.27;6.53;;;;;;;;;;4954637;28;20214;-64
2023/03/21 09:24:43;;;;;;;14.90;7.35;;;;;;;;;;4954571;28;20226;-64
2023/03/21 09:27:09;;;;;;;15.38;6.55;;;;;;;;;;4954704;28;20222;-64
2023/03/21 09:29:34;;;;;;;14.93;6.80;;;;;;;;;;4957139;28;20218;-64
2023/03/21 09:32:00;;;;;;;13.80;7.20;;;;;;;;;;4974327;28;20329;-65
2023/03/21 09:34:26;;;;;;;19.85;7.40;;;;;;;;;;4973863;28;20252;-65
2023/03/21 09:36:53;;;;;;;13.18;6.82;;;;;;;;;;4956419;28;20268;-65
2023/03/21 09:39:19;;;;;;;14.15;7.15;;;;;;;;;;4964487;28;20238;-65
2023/03/21 09:41:45;;;;;;;15.18;7.50;;;;;;;;;;4954742;29;20241;-65
2023/03/21 09:44:23;;;;;;;15.65;6.68;;;;;;;;;;4953886;29;20221;-65
2023/03/21 09:46:55;;;;;;;15.73;6.93;;;;;;;;;;4938136;29;20301;-64
2023/03/21 09:49:24;;;;;;;12.55;5.90;;;;;;;;;;4954395;29;20249;-64
2023/03/21 09:51:51;;;;;;;14.95;6.93;;;;;;;;;;4937244;29;20214;-64
2023/03/21 09:54:22;;;;;;;14.60;7.32;;;;;;;;;;4951156;28;20230;-65
2023/03/21 09:56:47;;;;;;;14.80;7.10;;;;;;;;;;4954352;28;20218;-65
2023/03/21 09:59:18;;;;;;;14.35;7.00;;;;;;;;;;4953638;28;20250;-64
2023/03/21 10:01:44;;;;;;;15.98;7.38;;;;;;;;;;4937413;29;20579;-65
2023/03/21 10:04:10;;;;;;;16.23;7.30;;;;;;;;;;4936127;29;20218;-65
2023/03/21 10:06:38;;;;;;;15.32;7.18;;;;;;;;;;4953856;29;20214;-65
2023/03/21 10:09:06;;;;;;;14.70;7.00;;;;;;;;;;4953989;29;20218;-65
2023/03/21 10:11:46;;;;;;;13.63;7.10;;;;;;;;;;4937305;29;20588;-65
2023/03/21 10:14:14;;;;;;;13.00;6.75;;;;;;;;;;4937191;29;20226;-65
2023/03/21 10:16:40;;;;;;;12.23;7.10;;;;;;;;;;4937345;29;20221;-65
2023/03/21 10:19:09;;;;;;;33.65;19.27;;;;;;;;;;4953141;29;20237;-65
2023/03/21 10:21:34;;;;;;;19.15;8.32;;;;;;;;;;4954463;29;20349;-65
2023/03/21 10:24:00;;;;;;;17.05;7.63;;;;;;;;;;4937101;29;20300;-65
2023/03/21 10:26:26;;;;;;;15.38;7.15;;;;;;;;;;4958927;28;20211;-65
2023/03/21 10:28:52;;;;;;;12.68;7.07;;;;;;;;;;4937232;29;20222;-65
2023/03/21 10:31:18;;;;;;;13.48;7.32;;;;;;;;;;4952863;28;20226;-65
2023/03/21 10:33:45;;;;;;;13.45;7.28;;;;;;;;;;4939600;28;20248;-65
2023/03/21 10:36:10;;;;;;;12.32;6.88;;;;;;;;;;4955804;28;20508;-65
2023/03/21 10:38:36;;;;;;;12.63;7.35;;;;;;;;;;4952825;29;20257;-65
2023/03/21 10:41:01;;;;;;;14.10;6.78;;;;;;;;;;4952590;29;20210;-65
2023/03/21 10:43:28;;;;;;;14.25;6.97;;;;;;;;;;4954040;29;20218;-65
2023/03/21 10:45:54;;;;;;;13.25;6.78;;;;;;;;;;4955322;28;20226;-65
2023/03/21 10:48:19;;;;;;;13.45;6.90;;;;;;;;;;4935152;29;20424;-64
2023/03/21 10:50:46;;;;;;;10.77;6.28;;;;;;;;;;4954246;29;20222;-64
2023/03/21 10:53:14;;;;;;;10.45;5.60;;;;;;;;;;4936469;29;20329;-65
2023/03/21 10:55:39;;;;;;;10.50;6.30;;;;;;;;;;4935661;29;20265;-65
2023/03/21 10:58:07;;;;;;;13.23;6.22;;;;;;;;;;4936254;29;20218;-65
2023/03/21 11:00:34;;;;;;;12.32;6.90;;;;;;;;;;4937162;29;20258;-65
2023/03/21 11:02:59;;;;;;;11.18;6.38;;;;;;;;;;4936091;29;20683;-64
2023/03/21 11:05:26;;;;;;;13.68;6.07;;;;;;;;;;4953475;29;20210;-64
2023/03/21 11:07:56;;;;;;;13.43;6.50;;;;;;;;;;4936790;28;20712;-64
2023/03/21 11:10:26;;;;;;;13.15;5.93;;;;;;;;;;4948076;28;20211;-65
2023/03/21 11:12:52;;;;;;;12.35;6.18;;;;;;;;;;4948809;28;20234;-64
2023/03/21 11:15:29;;;;;;;14.18;6.43;;;;;;;;;;4948200;28;20198;-64
2023/03/21 11:17:55;;;;;;;17.08;6.18;;;;;;;;;;4966779;28;20210;-64
2023/03/21 11:20:20;;;;;;;13.55;6.40;;;;;;;;;;4964216;28;20214;-64
2023/03/21 11:22:45;;;;;;;15.93;6.85;;;;;;;;;;4939664;29;20221;-64
2023/03/21 11:25:32;;;;;;;13.52;5.95;;;;;;;;;;4956671;29;20640;-64
2023/03/21 11:27:57;;;;;;;12.18;5.95;;;;;;;;;;4974446;28;20283;-64
2023/03/21 11:30:23;;;;;;;14.07;6.18;;;;;;;;;;4966226;28;20600;-64
2023/03/21 11:33:07;;;;;;;12.25;5.63;;;;;;;;;;4924236;29;20689;-64
2023/03/21 11:35:33;;;;;;;11.32;5.25;;;;;;;;;;4956965;29;20214;-64
2023/03/21 11:37:59;;;;;;;11.73;5.13;;;;;;;;;;4956610;29;20214;-64
2023/03/21 11:40:25;;;;;;;12.20;5.47;;;;;;;;;;4974320;28;20217;-64
2023/03/21 11:42:51;;;;;;;12.25;5.25;;;;;;;;;;4976141;28;20657;-64
2023/03/21 11:45:18;;;;;;;9.45;5.20;;;;;;;;;;4975125;28;20236;-64
2023/03/21 11:47:44;;;;;;;11.20;5.38;;;;;;;;;;4960103;28;20219;-64
2023/03/21 11:50:16;;;;;;;10.63;5.35;;;;;;;;;;4956569;29;20306;-64
2023/03/21 11:52:42;;;;;;;14.23;5.80;;;;;;;;;;4957011;29;20573;-64
2023/03/21 11:55:12;;;;;;;13.32;5.20;;;;;;;;;;4956415;29;20300;-64
2023/03/21 11:57:43;;;;;;;8.75;5.28;;;;;;;;;;4938871;29;20246;-64
2023/03/21 12:00:24;;;;;;;11.02;5.10;;;;;;;;;;4956475;29;20206;-64
2023/03/21 12:02:59;;;;;;;12.15;6.45;;;;;;;;;;4938695;29;20214;-64
2023/03/21 12:05:25;;;;;;;10.25;5.25;;;;;;;;;;4955573;29;20253;-64
2023/03/21 12:07:56;;;;;;;13.73;5.95;;;;;;;;;;4939707;29;20764;-64
2023/03/21 12:10:26;;;;;;;7.25;3.83;;;;;;;;;;4955727;29;20212;-64
2023/03/21 12:12:51;;;;;;;12.02;5.30;;;;;;;;;;4938445;29;20218;-64
2023/03/21 12:15:26;;;;;;;11.77;4.90;;;;;;;;;;4956091;29;20215;-63
2023/03/21 12:17:58;;;;;;;13.45;4.78;;;;;;;;;;4939460;29;20304;-64
2023/03/21 12:20:25;;;;;;;3.47;2.75;;;;;;;;;;4941824;28;20230;-64
2023/03/21 12:22:58;;;;;;;10.80;5.68;;;;;;;;;;4956289;29;20569;-64
2023/03/21 12:25:30;;;;;;;2.70;1.23;;;;;;;;;;4955390;29;20248;-64
2023/03/21 12:28:02;;;;;;;10.35;5.13;;;;;;;;;;4956035;28;20688;-64
2023/03/21 12:30:51;;;;;;;9.68;5.10;;;;;;;;;;4965189;28;20236;-64
2023/03/21 12:33:16;;;;;;;1.50;0.95;;;;;;;;;;4937837;29;20301;-65
2023/03/21 12:36:01;;;;;;;2.47;1.42;;;;;;;;;;4956235;29;20297;-64
2023/03/21 12:38:29;;;;;;;12.43;4.95;;;;;;;;;;4957953;28;20284;-63
2023/03/21 12:40:56;;;;;;;10.30;5.03;;;;;;;;;;4974828;28;20234;-64
2023/03/21 12:43:28;;;;;;;9.70;4.78;;;;;;;;;;4974594;28;20209;-64
2023/03/21 12:45:55;;;;;;;8.50;4.70;;;;;;;;;;4958164;28;20260;-64
2023/03/21 12:48:20;;;;;;;8.23;3.10;;;;;;;;;;4974048;28;20213;-64
2023/03/21 12:50:45;;;;;;;7.60;3.58;;;;;;;;;;4975150;28;20218;-64
2023/03/21 12:53:25;;;;;;;13.27;5.32;;;;;;;;;;4974695;28;20236;-64
2023/03/21 12:55:51;;;;;;;11.90;5.30;;;;;;;;;;4957274;28;20217;-64
2023/03/21 12:58:18;;;;;;;11.15;5.55;;;;;;;;;;4957225;28;20221;-63
2023/03/21 13:00:44;;;;;;;13.02;5.43;;;;;;;;;;4956898;28;20218;-64
2023/03/21 13:03:10;;;;;;;10.15;5.55;;;;;;;;;;4974505;28;20340;-64
2023/03/21 13:05:42;;;;;;;14.57;7.25;;;;;;;;;;4974863;28;20216;-64
2023/03/21 13:08:19;;;;;;;10.70;5.15;;;;;;;;;;4973693;28;20620;-63
2023/03/21 13:10:45;;;;;;;13.35;5.68;;;;;;;;;;4971606;28;20241;-64
2023/03/21 13:13:20;;;;;;;11.60;5.50;;;;;;;;;;4939596;29;20709;-64
2023/03/21 13:16:01;;;;;;;18.83;5.50;;;;;;;;;;4953466;28;20213;-64
2023/03/21 13:18:31;;;;;;;12.20;5.07;;;;;;;;;;4955292;29;20214;-64
2023/03/21 13:20:58;;;;;;;11.15;5.00;;;;;;;;;;4947802;28;20233;-64
2023/03/21 13:23:23;;;;;;;10.45;5.07;;;;;;;;;;4962290;28;20238;-64
2023/03/21 13:25:49;;;;;;;12.20;5.28;;;;;;;;;;4971141;28;20209;-64
2023/03/21 13:28:17;;;;;;;7.72;3.75;;;;;;;;;;4936454;29;20229;-64
2023/03/21 13:30:42;;;;;;;13.10;4.50;;;;;;;;;;4948502;28;20232;-64
2023/03/21 13:33:11;;;;;;;12.48;5.95;;;;;;;;;;4972300;28;20222;-64
2023/03/21 13:35:37;;;;;;;9.23;5.00;;;;;;;;;;4936384;29;20219;-64
2023/03/21 13:38:04;;;;;;;9.27;4.85;;;;;;;;;;4951505;28;21552;-64
2023/03/21 13:40:37;;;;;;;7.38;3.25;;;;;;;;;;4943908;29;20560;-64
2023/03/21 13:43:02;;;;;;;8.88;3.60;;;;;;;;;;4959766;28;20225;-64
2023/03/21 13:45:45;;;;;;;8.38;3.42;;;;;;;;;;4967610;28;20265;-64
2023/03/21 13:48:31;;;;;;;11.73;5.85;;;;;;;;;;4973819;28;20397;-64
2023/03/21 13:51:01;;;;;;;9.63;3.88;;;;;;;;;;4971828;28;20206;-64
2023/03/21 13:53:35;;;;;;;15.77;8.25;;;;;;;;;;4958817;28;20315;-64
2023/03/21 13:56:19;;;;;;;15.75;7.45;;;;;;;;;;4954051;28;20210;-64
2023/03/21 13:58:45;;;;;;;8.90;4.78;;;;;;;;;;4953904;28;20752;-64
2023/03/21 14:01:26;;;;;;;14.73;4.72;;;;;;;;;;4953314;28;20257;-64
2023/03/21 14:03:58;;;;;;;13.57;4.22;;;;;;;;;;4950368;28;20224;-64
2023/03/21 14:06:24;;;;;;;12.48;4.95;;;;;;;;;;4973597;28;20217;-64
2023/03/21 14:08:49;;;;;;;9.85;4.30;;;;;;;;;;4974081;28;20716;-64
2023/03/21 14:11:16;;;;;;;11.43;4.57;;;;;;;;;;4972327;28;20210;-64
2023/03/21 14:13:41;;;;;;;12.68;4.25;;;;;;;;;;4952858;29;20273;-63
2023/03/21 14:16:13;;;;;;;14.85;4.65;;;;;;;;;;4936729;29;20626;-64
2023/03/21 14:18:40;;;;;;;12.07;4.50;;;;;;;;;;4953635;29;20678;-63
2023/03/21 14:21:05;;;;;;;13.98;4.55;;;;;;;;;;4953688;29;20763;-64
2023/03/21 14:23:31;;;;;;;11.13;4.88;;;;;;;;;;4954360;29;20246;-64
2023/03/21 14:25:56;;;;;;;10.10;4.63;;;;;;;;;;4954496;28;20214;-64
2023/03/21 14:28:23;;;;;;;12.60;4.50;;;;;;;;;;4973245;28;20285;-64
2023/03/21 14:30:50;;;;;;;11.10;4.57;;;;;;;;;;4960708;28;20318;-64